Time;durP1;ratioP1;P1;durP2;ratioP2;P2;SDS_P1;SDS_P2;PMS_P1;PMS_P2;Temp;Humidity;BMP_temperature;BMP_pressure;BME280_temperature;BME280_humidity;BME280_pressure;Samples;Min_cycle;Max_cycle;Signal;HPM_P1;HPM_P2
2022/03/12 00:00:11;;;;;;;15.40;3.05;;;8.30;88.30;;;;;;5070007;28;20040;-70
2022/03/12 00:02:43;;;;;;;19.40;2.90;;;8.30;88.30;;;;;;5059166;28;20056;-70
2022/03/12 00:05:11;;;;;;;14.75;2.92;;;8.30;88.30;;;;;;5054640;28;20494;-70
2022/03/12 00:07:42;;;;;;;18.60;3.65;;;8.30;88.20;;;;;;5028627;28;20048;-70
2022/03/12 00:10:13;;;;;;;12.38;2.67;;;8.30;88.20;;;;;;5047620;28;20043;-69
2022/03/12 00:12:41;;;;;;;16.50;2.80;;;8.30;88.20;;;;;;5064603;28;20033;-70
2022/03/12 00:15:12;;;;;;;18.27;2.97;;;8.20;88.20;;;;;;5043626;28;20045;-69
2022/03/12 00:17:45;;;;;;;13.13;2.40;;;8.30;88.20;;;;;;5056847;28;20040;-70
2022/03/12 00:20:16;;;;;;;9.45;2.08;;;8.30;88.20;;;;;;5064287;28;20044;-71
2022/03/12 00:22:51;;;;;;;17.52;2.30;;;8.20;88.20;;;;;;5058872;28;20045;-70
2022/03/12 00:25:31;;;;;;;12.25;2.17;;;8.10;88.20;;;;;;5054528;28;20052;-69
2022/03/12 00:27:59;;;;;;;18.80;2.83;;;8.00;88.20;;;;;;5064144;28;20425;-70
2022/03/12 00:30:34;;;;;;;9.35;2.05;;;7.90;88.30;;;;;;5057038;28;20056;-69
2022/03/12 00:33:02;;;;;;;12.82;2.08;;;7.90;88.40;;;;;;5060542;28;20052;-69
2022/03/12 00:35:32;;;;;;;13.77;2.53;;;7.90;88.40;;;;;;5054412;28;20052;-69
2022/03/12 00:38:01;;;;;;;17.77;2.95;;;7.90;88.50;;;;;;5057748;28;20047;-69
2022/03/12 00:40:29;;;;;;;10.93;2.03;;;7.80;88.50;;;;;;5071162;28;20052;-69
2022/03/12 00:42:57;;;;;;;13.38;2.55;;;7.90;88.70;;;;;;5071993;28;20048;-69
2022/03/12 00:45:29;;;;;;;15.25;2.58;;;7.90;88.70;;;;;;5071695;28;20497;-69
2022/03/12 00:47:56;;;;;;;12.85;2.78;;;8.00;88.60;;;;;;5070646;28;20048;-69
2022/03/12 00:50:24;;;;;;;10.77;2.22;;;8.00;88.60;;;;;;5068851;28;20041;-69
2022/03/12 00:52:53;;;;;;;12.35;2.47;;;8.00;88.50;;;;;;5037837;28;20052;-69
2022/03/12 00:55:20;;;;;;;11.88;2.45;;;8.00;88.50;;;;;;5072318;28;20043;-69
2022/03/12 00:57:48;;;;;;;8.60;2.28;;;8.00;88.50;;;;;;5072381;28;20048;-70
2022/03/12 01:00:18;;;;;;;15.07;2.45;;;8.00;88.50;;;;;;5070998;28;20493;-69
2022/03/12 01:02:47;;;;;;;10.52;2.53;;;8.00;88.50;;;;;;5069474;28;20524;-69
2022/03/12 01:05:18;;;;;;;13.88;2.40;;;8.00;88.50;;;;;;5058177;28;20459;-69
2022/03/12 01:07:46;;;;;;;16.48;3.28;;;8.00;88.50;;;;;;5055612;28;20049;-69
2022/03/12 01:10:14;;;;;;;12.43;2.65;;;8.00;88.40;;;;;;5057161;28;20048;-69
2022/03/12 01:12:44;;;;;;;8.40;2.25;;;8.00;88.40;;;;;;5051629;28;20403;-70
2022/03/12 01:15:12;;;;;;;8.88;2.70;;;8.00;88.40;;;;;;5066277;28;20049;-69
2022/03/12 01:17:40;;;;;;;11.27;2.50;;;8.00;88.40;;;;;;5048446;28;20061;-69
2022/03/12 01:20:08;;;;;;;11.00;2.40;;;8.00;88.40;;;;;;5054971;28;20044;-69
2022/03/12 01:22:38;;;;;;;10.40;2.47;;;8.10;88.40;;;;;;5052020;28;20494;-70
2022/03/12 01:25:07;;;;;;;12.77;2.65;;;8.10;88.40;;;;;;5051261;28;20044;-69
2022/03/12 01:27:34;;;;;;;6.85;2.13;;;8.10;88.40;;;;;;5051922;28;20049;-69
2022/03/12 01:30:07;;;;;;;9.02;2.53;;;8.10;88.30;;;;;;5034172;28;20045;-69
2022/03/12 01:38:31;;;;;;;10.80;2.50;;;8.10;88.30;;;;;;4922630;29;20040;-69
2022/03/12 01:41:06;;;;;;;13.60;2.72;;;8.10;88.30;;;;;;4916146;29;20059;-70
2022/03/12 01:43:36;;;;;;;9.05;2.00;;;8.10;88.20;;;;;;4911714;29;20052;-69
2022/03/12 01:46:10;;;;;;;8.13;2.20;;;8.10;88.20;;;;;;4933732;29;20047;-69
2022/03/12 01:48:50;;;;;;;9.15;2.17;;;8.10;88.10;;;;;;4934805;29;20054;-70
2022/03/12 01:51:19;;;;;;;13.00;2.40;;;8.10;88.10;;;;;;4934066;29;20520;-69
2022/03/12 01:53:46;;;;;;;8.20;1.73;;;8.10;88.10;;;;;;4934087;29;20377;-69
2022/03/12 01:56:16;;;;;;;10.48;2.03;;;8.20;88.00;;;;;;4918081;29;20059;-70
2022/03/12 01:58:47;;;;;;;17.38;2.65;;;8.20;87.90;;;;;;4938461;29;20497;-70
2022/03/12 02:01:18;;;;;;;8.13;1.90;;;8.20;87.90;;;;;;4925735;29;20048;-69
2022/03/12 02:03:47;;;;;;;10.35;1.70;;;8.20;87.90;;;;;;4938387;29;20409;-69
2022/03/12 02:06:16;;;;;;;11.23;2.35;;;8.10;87.90;;;;;;4938004;29;20040;-70
2022/03/12 02:08:48;;;;;;;14.05;2.40;;;8.10;87.80;;;;;;4920912;29;20060;-70
2022/03/12 02:11:39;;;;;;;9.60;2.00;;;8.20;87.80;;;;;;4937828;29;20043;-70
2022/03/12 02:14:19;;;;;;;9.65;2.33;;;8.20;87.80;;;;;;4938110;29;20052;-70
2022/03/12 02:16:49;;;;;;;14.02;2.20;;;8.20;87.70;;;;;;4921636;29;20047;-70
2022/03/12 02:19:18;;;;;;;15.05;2.25;;;8.20;87.70;;;;;;4938070;29;20059;-71
2022/03/12 02:21:52;;;;;;;9.45;2.03;;;8.20;87.70;;;;;;4937955;29;20055;-70
2022/03/12 02:24:21;;;;;;;12.13;1.48;;;8.20;87.60;;;;;;4938115;29;20051;-70
2022/03/12 02:26:49;;;;;;;9.50;1.70;;;8.20;87.60;;;;;;4921115;29;20051;-70
2022/03/12 02:29:22;;;;;;;7.90;1.67;;;8.30;87.50;;;;;;4919486;29;20489;-70
2022/03/12 02:31:56;;;;;;;7.72;1.70;;;8.30;87.50;;;;;;4937504;29;20066;-70
2022/03/12 02:34:30;;;;;;;15.50;1.50;;;8.30;87.40;;;;;;4937384;29;20047;-70
2022/03/12 02:36:58;;;;;;;12.75;1.52;;;8.30;87.40;;;;;;4919932;29;20075;-70
2022/03/12 02:39:27;;;;;;;12.65;2.15;;;8.30;87.40;;;;;;4937362;29;20063;-70
2022/03/12 02:41:55;;;;;;;9.75;1.88;;;8.20;87.40;;;;;;4936858;29;20481;-70
2022/03/12 02:44:26;;;;;;;7.57;1.30;;;8.20;87.40;;;;;;4937639;29;20493;-70
2022/03/12 02:47:16;;;;;;;13.38;1.65;;;8.20;87.30;;;;;;4919538;29;20047;-70
2022/03/12 02:49:59;;;;;;;15.32;1.60;;;8.20;87.40;;;;;;4916529;29;20394;-70
2022/03/12 02:52:28;;;;;;;13.32;2.03;;;8.20;87.40;;;;;;4934159;29;20489;-71
2022/03/12 02:54:58;;;;;;;7.90;1.58;;;8.20;87.40;;;;;;4934982;29;20533;-71
2022/03/12 02:57:27;;;;;;;10.70;1.67;;;8.20;87.40;;;;;;4933218;29;20520;-71
2022/03/12 03:00:06;;;;;;;7.60;1.40;;;8.20;87.40;;;;;;4918857;29;20051;-71
2022/03/12 03:02:39;;;;;;;10.23;1.60;;;8.20;87.40;;;;;;4936217;29;20050;-71
2022/03/12 03:08:04;;;;;;;9.45;1.60;;;8.20;87.50;;;;;;4934186;29;20044;-71
2022/03/12 03:10:38;;;;;;;6.15;1.90;;;8.20;87.50;;;;;;4936204;29;20408;-71
2022/03/12 03:13:18;;;;;;;11.13;1.70;;;8.20;87.60;;;;;;4944809;29;20050;-71
2022/03/12 03:16:00;;;;;;;18.90;1.55;;;8.10;87.60;;;;;;4934639;29;20055;-71
2022/03/12 03:18:33;;;;;;;9.98;1.92;;;8.10;87.60;;;;;;4918029;29;20046;-69
2022/03/12 03:21:02;;;;;;;12.88;2.10;;;8.10;87.60;;;;;;4935558;29;20056;-69
2022/03/12 03:23:32;;;;;;;10.82;1.58;;;8.10;87.70;;;;;;4936304;29;20417;-69
2022/03/12 03:26:01;;;;;;;6.80;1.45;;;8.10;87.70;;;;;;4919007;29;20072;-69
2022/03/12 03:28:30;;;;;;;11.02;1.38;;;8.10;87.80;;;;;;4933474;29;20055;-69
2022/03/12 03:30:57;;;;;;;6.35;1.20;;;8.10;87.80;;;;;;4936673;29;20412;-70
2022/03/12 03:33:27;;;;;;;9.27;1.33;;;8.00;87.80;;;;;;4936783;29;20060;-69
2022/03/12 03:35:55;;;;;;;14.02;1.85;;;8.00;87.70;;;;;;4919442;29;20386;-69
2022/03/12 03:38:23;;;;;;;7.95;1.23;;;8.10;87.70;;;;;;4936391;29;20048;-69
2022/03/12 03:40:51;;;;;;;6.10;1.40;;;8.00;87.60;;;;;;4935423;29;20047;-69
2022/03/12 03:43:21;;;;;;;7.93;1.30;;;8.00;87.60;;;;;;4936636;29;20051;-70
2022/03/12 03:45:51;;;;;;;11.95;1.70;;;8.00;87.60;;;;;;4936470;29;20062;-70
2022/03/12 03:48:21;;;;;;;8.05;1.50;;;8.00;87.60;;;;;;4919353;29;20070;-70
2022/03/12 03:50:51;;;;;;;6.00;1.20;;;8.00;87.50;;;;;;4935343;29;20060;-70
2022/03/12 03:53:22;;;;;;;8.93;1.27;;;8.00;87.50;;;;;;4903378;29;20055;-70
2022/03/12 03:55:53;;;;;;;4.32;1.00;;;7.90;87.40;;;;;;4936349;29;20051;-70
2022/03/12 03:58:21;;;;;;;5.82;0.95;;;7.90;87.40;;;;;;4919026;29;20048;-70
2022/03/12 04:01:12;;;;;;;9.43;0.80;;;7.90;87.30;;;;;;4936058;29;20421;-70
2022/03/12 04:03:47;;;;;;;4.10;1.02;;;7.90;87.30;;;;;;4935255;29;20052;-70
2022/03/12 04:06:18;;;;;;;7.07;1.00;;;7.90;87.20;;;;;;4936010;29;20055;-69
2022/03/12 04:08:47;;;;;;;3.00;0.60;;;7.90;87.20;;;;;;4935554;29;20063;-69
2022/03/12 04:11:23;;;;;;;4.80;0.90;;;7.90;87.10;;;;;;4936128;29;20409;-69
2022/03/12 04:13:53;;;;;;;12.45;1.38;;;7.90;87.10;;;;;;4935878;29;20047;-70
2022/03/12 04:16:24;;;;;;;5.82;0.98;;;7.90;87.00;;;;;;4934952;29;20421;-69
2022/03/12 04:18:52;;;;;;;8.23;1.00;;;7.90;87.00;;;;;;4942449;29;20046;-69
2022/03/12 04:21:20;;;;;;;8.02;1.15;;;7.90;87.00;;;;;;4934260;28;20509;-69
2022/03/12 04:23:49;;;;;;;4.18;0.70;;;7.90;87.00;;;;;;4933949;29;20050;-70
2022/03/12 04:26:17;;;;;;;6.93;0.80;;;7.90;86.90;;;;;;4933096;29;20055;-70
2022/03/12 04:28:45;;;;;;;8.13;0.98;;;7.90;86.90;;;;;;4932873;29;20044;-69
2022/03/12 04:31:14;;;;;;;4.35;1.73;;;7.90;86.90;;;;;;4932692;29;20055;-70
2022/03/12 04:33:41;;;;;;;3.08;0.65;;;7.80;86.90;;;;;;4917087;29;20173;-70
2022/03/12 04:36:10;;;;;;;5.10;0.98;;;7.80;86.90;;;;;;4917714;29;20070;-70
2022/03/12 04:38:37;;;;;;;9.98;1.23;;;7.80;86.90;;;;;;4918354;29;20048;-70
2022/03/12 04:41:07;;;;;;;3.45;0.70;;;7.80;87.00;;;;;;4918710;29;20043;-70
2022/03/12 04:43:34;;;;;;;4.72;1.10;;;7.80;87.10;;;;;;4933575;29;20059;-70
2022/03/12 04:46:02;;;;;;;4.30;0.90;;;7.80;87.10;;;;;;4933083;29;20048;-70
2022/03/12 04:48:30;;;;;;;9.35;1.25;;;7.80;87.20;;;;;;4934979;29;20059;-70
2022/03/12 04:50:58;;;;;;;7.30;0.98;;;7.70;87.20;;;;;;4935312;29;20393;-70
2022/03/12 04:53:26;;;;;;;7.90;1.25;;;7.70;87.30;;;;;;4918407;29;20059;-69
2022/03/12 04:55:55;;;;;;;5.53;1.00;;;7.70;87.40;;;;;;4902859;29;20497;-70
2022/03/12 04:58:23;;;;;;;7.55;1.50;;;7.70;87.50;;;;;;4934151;29;20200;-70
2022/03/12 05:00:51;;;;;;;3.22;0.90;;;7.60;87.60;;;;;;4934527;29;20075;-70
2022/03/12 05:03:21;;;;;;;3.25;0.90;;;7.60;87.60;;;;;;4918457;29;20052;-70
2022/03/12 05:05:51;;;;;;;7.50;1.40;;;7.50;87.70;;;;;;4918061;29;20060;-70
2022/03/12 05:08:22;;;;;;;2.67;0.90;;;7.50;87.80;;;;;;4933683;29;20084;-70
2022/03/12 05:10:52;;;;;;;5.38;1.02;;;7.50;87.80;;;;;;4917795;29;20070;-69
2022/03/12 05:13:27;;;;;;;6.30;1.33;;;7.40;88.00;;;;;;4917356;29;20063;-68
2022/03/12 05:15:59;;;;;;;5.60;1.17;;;7.50;88.00;;;;;;4917923;29;20062;-69
2022/03/12 05:18:26;;;;;;;4.20;1.20;;;7.50;88.00;;;;;;4934871;29;20304;-69
2022/03/12 05:20:55;;;;;;;2.83;0.70;;;7.50;88.00;;;;;;4934112;29;20048;-70
2022/03/12 05:23:26;;;;;;;0.93;0.50;;;7.50;88.00;;;;;;4935239;29;20070;-69
2022/03/12 05:25:54;;;;;;;9.50;1.00;;;7.50;88.00;;;;;;4935135;29;20503;-69
2022/03/12 05:28:32;;;;;;;6.57;0.82;;;7.50;87.90;;;;;;4917272;29;20044;-69
2022/03/12 05:31:04;;;;;;;6.22;1.13;;;7.50;87.90;;;;;;4942248;29;20056;-70
2022/03/12 05:33:33;;;;;;;6.03;1.10;;;7.50;87.90;;;;;;4939212;29;20487;-69
2022/03/12 05:36:03;;;;;;;1.42;0.73;;;7.50;88.00;;;;;;4928850;29;20056;-69
2022/03/12 05:38:32;;;;;;;3.80;0.60;;;7.50;87.90;;;;;;4938466;29;20052;-70
2022/03/12 05:41:00;;;;;;;3.70;0.95;;;7.50;87.90;;;;;;4905744;29;20497;-69
2022/03/12 05:43:33;;;;;;;2.60;0.70;;;7.50;87.80;;;;;;4937323;29;20072;-69
2022/03/12 05:46:01;;;;;;;7.70;1.05;;;7.50;87.80;;;;;;4938625;29;20054;-70
2022/03/12 05:48:28;;;;;;;3.55;0.60;;;7.50;87.80;;;;;;4938481;29;20070;-70
2022/03/12 05:50:56;;;;;;;1.15;0.40;;;7.50;87.70;;;;;;4921747;29;20397;-69
2022/03/12 05:53:24;;;;;;;2.42;0.60;;;7.40;87.70;;;;;;4921995;29;20056;-70
2022/03/12 05:55:52;;;;;;;3.78;0.80;;;7.40;87.60;;;;;;4920886;29;20066;-70
2022/03/12 05:58:21;;;;;;;4.03;1.10;;;7.40;87.50;;;;;;4938059;29;20047;-70
2022/03/12 06:00:54;;;;;;;3.33;0.63;;;7.40;87.50;;;;;;4937889;29;20512;-70
2022/03/12 06:03:24;;;;;;;4.55;0.82;;;7.40;87.50;;;;;;4937691;29;20059;-70
2022/03/12 06:05:56;;;;;;;4.63;0.77;;;7.40;87.60;;;;;;4938407;29;20055;-70
2022/03/12 06:08:24;;;;;;;3.53;0.75;;;7.40;87.60;;;;;;4920696;29;20044;-70
2022/03/12 06:10:55;;;;;;;4.60;0.63;;;7.40;87.80;;;;;;4938197;29;20421;-70
2022/03/12 06:13:25;;;;;;;3.92;0.60;;;7.30;87.80;;;;;;4938420;29;20052;-70
2022/03/12 06:15:58;;;;;;;2.42;0.28;;;7.30;87.80;;;;;;4921001;29;20058;-70
2022/03/12 06:18:28;;;;;;;2.78;0.40;;;7.30;87.70;;;;;;4937987;29;20047;-70
2022/03/12 06:20:56;;;;;;;2.67;0.30;;;7.30;87.70;;;;;;4937563;29;20063;-70
2022/03/12 06:23:24;;;;;;;1.92;0.28;;;7.30;87.30;;;;;;4938184;29;20047;-70
2022/03/12 06:25:53;;;;;;;6.10;0.73;;;7.30;87.00;;;;;;4937927;29;20063;-69
2022/03/12 06:28:21;;;;;;;1.98;0.40;;;7.30;86.80;;;;;;4920465;29;20055;-70
2022/03/12 06:30:53;;;;;;;2.90;0.35;;;7.30;86.70;;;;;;4938060;29;20489;-70
2022/03/12 06:33:22;;;;;;;1.27;0.20;;;7.30;86.50;;;;;;4937967;29;20048;-70
2022/03/12 06:35:51;;;;;;;4.38;0.65;;;7.30;86.10;;;;;;4937560;29;20048;-69
2022/03/12 06:38:20;;;;;;;0.50;0.17;;;7.30;86.00;;;;;;4936834;29;20063;-69
2022/03/12 06:40:49;;;;;;;0.20;0.08;;;7.30;85.90;;;;;;4940379;29;20052;-69
2022/03/12 06:43:20;;;;;;;0.93;0.20;;;7.30;85.70;;;;;;4944438;29;20052;-70
2022/03/12 06:45:49;;;;;;;4.00;0.40;;;7.30;85.80;;;;;;4920664;29;20058;-69
2022/03/12 06:48:17;;;;;;;1.00;0.10;;;7.30;85.80;;;;;;4920318;29;20044;-69
2022/03/12 06:50:45;;;;;;;2.85;0.35;;;7.20;86.10;;;;;;4937632;29;20052;-70
2022/03/12 06:53:14;;;;;;;3.97;0.70;;;7.20;86.00;;;;;;4920702;29;20052;-69
2022/03/12 06:55:42;;;;;;;2.17;0.40;;;7.20;86.20;;;;;;4937234;29;20058;-70
2022/03/12 06:58:11;;;;;;;2.10;0.55;;;7.10;86.30;;;;;;4936845;29;20428;-70
2022/03/12 07:00:40;;;;;;;2.42;0.35;;;7.10;86.30;;;;;;4920555;29;20062;-69
2022/03/12 07:03:07;;;;;;;2.85;0.47;;;7.10;86.40;;;;;;4937395;29;20035;-69
2022/03/12 07:05:36;;;;;;;1.60;0.40;;;7.10;86.50;;;;;;4937163;29;20047;-69
2022/03/12 07:08:03;;;;;;;1.65;0.50;;;7.10;86.60;;;;;;4936669;29;20048;-70
2022/03/12 07:10:31;;;;;;;2.35;0.30;;;7.10;86.80;;;;;;4936653;29;20056;-69
2022/03/12 07:12:59;;;;;;;2.50;0.45;;;7.20;86.80;;;;;;4936617;29;20059;-70
2022/03/12 07:15:26;;;;;;;2.95;0.50;;;7.20;86.90;;;;;;4936773;29;20516;-70
2022/03/12 07:17:55;;;;;;;1.92;0.35;;;7.20;86.80;;;;;;4919876;29;20047;-70
2022/03/12 07:20:26;;;;;;;5.53;0.70;;;7.20;86.60;;;;;;4937047;29;20116;-70
2022/03/12 07:22:54;;;;;;;3.47;0.40;;;7.20;86.50;;;;;;4936690;29;20393;-70
2022/03/12 07:25:25;;;;;;;2.67;0.40;;;7.20;86.50;;;;;;4936578;29;20063;-70
2022/03/12 07:27:54;;;;;;;1.17;0.30;;;7.20;86.40;;;;;;4937087;29;20047;-70
2022/03/12 07:30:22;;;;;;;1.85;0.30;;;7.20;86.40;;;;;;4937071;29;20043;-70
2022/03/12 07:32:50;;;;;;;1.95;0.63;;;7.20;86.30;;;;;;4935839;29;20054;-69
2022/03/12 07:35:19;;;;;;;5.95;1.20;;;7.20;86.40;;;;;;4936126;29;20052;-70
2022/03/12 07:37:49;;;;;;;7.00;3.20;;;7.20;86.30;;;;;;4936631;29;20055;-70
2022/03/12 07:40:17;;;;;;;6.70;3.88;;;7.20;86.30;;;;;;4917854;29;20111;-70
2022/03/12 07:42:46;;;;;;;4.65;2.88;;;7.20;86.40;;;;;;4934892;29;20051;-70
2022/03/12 07:45:15;;;;;;;4.82;1.85;;;7.20;86.40;;;;;;4934618;29;20060;-70
2022/03/12 07:47:44;;;;;;;6.40;1.35;;;7.30;86.50;;;;;;4941380;29;20055;-70
2022/03/12 07:50:12;;;;;;;1.88;0.82;;;7.30;86.60;;;;;;4935246;29;20052;-72
2022/03/12 07:52:41;;;;;;;4.85;0.60;;;7.30;86.70;;;;;;4917491;29;20409;-70
2022/03/12 07:55:10;;;;;;;1.45;0.50;;;7.40;86.70;;;;;;4934324;29;20048;-69
2022/03/12 07:57:40;;;;;;;1.13;0.65;;;7.40;86.70;;;;;;4914745;29;20056;-69
2022/03/12 08:00:10;;;;;;;3.20;0.90;;;7.50;86.50;;;;;;4916574;29;20433;-70
2022/03/12 08:02:42;;;;;;;2.90;0.77;;;7.50;86.20;;;;;;4936109;29;20051;-70
2022/03/12 08:05:12;;;;;;;1.63;0.50;;;7.50;86.20;;;;;;4919029;29;20417;-70
2022/03/12 08:07:40;;;;;;;2.78;0.60;;;7.50;86.10;;;;;;4933345;29;20051;-70
2022/03/12 08:10:09;;;;;;;4.95;0.40;;;7.60;85.70;;;;;;4936043;29;20490;-70
2022/03/12 08:12:38;;;;;;;2.72;0.50;;;7.50;85.60;;;;;;4934549;29;20509;-70
2022/03/12 08:15:07;;;;;;;2.10;0.70;;;7.40;85.30;;;;;;4919261;29;20044;-70
2022/03/12 08:17:36;;;;;;;3.03;0.70;;;7.30;85.10;;;;;;4902859;29;20405;-70
2022/03/12 08:20:06;;;;;;;11.95;1.05;;;7.20;85.00;;;;;;4935113;29;20047;-70
2022/03/12 08:22:37;;;;;;;7.80;0.80;;;7.20;85.20;;;;;;4935361;29;20058;-70
2022/03/12 08:25:07;;;;;;;5.78;0.77;;;7.10;85.30;;;;;;4935736;29;20052;-70
2022/03/12 08:27:36;;;;;;;3.40;0.90;;;7.10;85.40;;;;;;4899995;29;20442;-70
2022/03/12 08:30:05;;;;;;;6.50;1.13;;;7.10;85.40;;;;;;4923218;29;20493;-70
2022/03/12 08:32:35;;;;;;;4.68;0.98;;;7.10;85.50;;;;;;4935764;29;20051;-70
2022/03/12 08:35:05;;;;;;;6.65;0.80;;;7.00;85.50;;;;;;4918060;29;20052;-70
2022/03/12 08:37:33;;;;;;;3.58;0.60;;;7.00;85.60;;;;;;4934822;29;20055;-70
2022/03/12 08:40:06;;;;;;;5.95;0.93;;;7.10;85.60;;;;;;4918330;29;20062;-70
2022/03/12 08:42:35;;;;;;;5.35;0.68;;;7.10;85.70;;;;;;4935018;29;20417;-70
2022/03/12 08:45:04;;;;;;;4.22;0.80;;;7.10;85.70;;;;;;4930970;29;20417;-70
2022/03/12 08:47:32;;;;;;;5.22;0.77;;;7.30;85.70;;;;;;4924316;29;20063;-70
2022/03/12 08:50:00;;;;;;;6.20;0.73;;;7.30;85.50;;;;;;4916776;29;20051;-70
2022/03/12 08:52:28;;;;;;;4.13;0.63;;;7.40;85.20;;;;;;4917598;29;20058;-70
2022/03/12 08:54:56;;;;;;;5.55;1.10;;;7.40;85.10;;;;;;4934292;29;20044;-71
2022/03/12 08:57:23;;;;;;;4.00;0.68;;;7.50;84.80;;;;;;4934798;29;20409;-69
2022/03/12 08:59:51;;;;;;;6.63;1.05;;;7.50;84.80;;;;;;4933406;29;20056;-70
2022/03/12 09:02:20;;;;;;;8.02;0.90;;;7.50;84.70;;;;;;4934782;29;20048;-70
2022/03/12 09:04:49;;;;;;;8.35;0.80;;;7.50;84.70;;;;;;4911013;29;20666;-70
2022/03/12 09:07:17;;;;;;;11.98;0.98;;;7.40;84.90;;;;;;4927199;29;20059;-70
2022/03/12 09:09:46;;;;;;;10.48;0.80;;;7.40;85.00;;;;;;4910967;29;20055;-70
2022/03/12 09:12:16;;;;;;;9.10;1.00;;;7.40;85.00;;;;;;4923501;29;20055;-71
2022/03/12 09:14:45;;;;;;;7.72;0.80;;;7.50;85.00;;;;;;4931551;29;20552;-70
2022/03/12 09:17:13;;;;;;;11.40;1.35;;;7.50;85.10;;;;;;4923165;29;20055;-70
2022/03/12 09:19:40;;;;;;;4.78;0.90;;;7.70;84.80;;;;;;4927910;29;20040;-71
2022/03/12 09:22:09;;;;;;;3.90;0.85;;;7.70;84.70;;;;;;4925765;29;20040;-70
2022/03/12 09:24:38;;;;;;;2.88;0.52;;;7.80;84.40;;;;;;4924267;29;20071;-70
2022/03/12 09:27:08;;;;;;;12.15;1.30;;;8.00;84.30;;;;;;4911390;29;20494;-70
2022/03/12 09:29:36;;;;;;;5.68;0.90;;;8.00;83.30;;;;;;4924564;29;20048;-70
2022/03/12 09:32:05;;;;;;;4.90;0.70;;;8.20;83.00;;;;;;4928745;29;20047;-70
2022/03/12 09:34:34;;;;;;;4.82;0.73;;;8.20;82.90;;;;;;4911196;29;20040;-70
2022/03/12 09:37:03;;;;;;;3.72;0.70;;;8.30;82.60;;;;;;4895166;29;20051;-69
2022/03/12 09:39:32;;;;;;;8.27;0.80;;;8.30;82.10;;;;;;4895716;29;20124;-70
2022/03/12 09:42:00;;;;;;;2.80;0.60;;;8.40;81.40;;;;;;4910382;29;20040;-70
2022/03/12 09:44:28;;;;;;;5.57;0.70;;;8.50;81.30;;;;;;4927507;29;20051;-70
2022/03/12 09:46:56;;;;;;;6.00;1.27;;;8.60;81.10;;;;;;4928521;29;20052;-70
2022/03/12 09:49:24;;;;;;;4.45;0.70;;;8.70;80.80;;;;;;4911627;29;20070;-69
2022/03/12 09:51:51;;;;;;;8.48;0.88;;;8.80;80.60;;;;;;4930959;29;20059;-70
2022/03/12 09:54:20;;;;;;;4.90;0.85;;;8.90;79.70;;;;;;4932572;29;20370;-70
2022/03/12 09:56:47;;;;;;;2.40;0.90;;;9.00;79.50;;;;;;4927877;29;20401;-70
2022/03/12 09:59:15;;;;;;;7.93;0.98;;;9.00;79.80;;;;;;4927077;29;20048;-70
2022/03/12 10:01:43;;;;;;;5.00;0.80;;;9.30;80.20;;;;;;4912687;29;20056;-69
2022/03/12 10:04:11;;;;;;;6.88;0.70;;;9.40;79.90;;;;;;4929282;29;20085;-69
2022/03/12 10:06:40;;;;;;;7.15;0.93;;;9.60;78.90;;;;;;4930578;29;20112;-70
2022/03/12 10:09:09;;;;;;;5.07;0.80;;;9.70;78.90;;;;;;4927807;29;20044;-70
2022/03/12 10:11:37;;;;;;;6.18;0.95;;;9.70;78.40;;;;;;4901764;29;20060;-70
2022/03/12 10:14:05;;;;;;;5.65;0.88;;;9.70;78.10;;;;;;4931199;29;20048;-69
2022/03/12 10:16:33;;;;;;;7.88;1.45;;;9.80;77.80;;;;;;4930196;29;20051;-70
2022/03/12 10:19:02;;;;;;;5.45;0.85;;;9.80;77.40;;;;;;4902229;29;20250;-69
2022/03/12 10:21:32;;;;;;;7.05;1.00;;;9.70;77.20;;;;;;4930364;29;20486;-70
2022/03/12 10:24:02;;;;;;;4.45;0.98;;;9.80;77.30;;;;;;4915835;29;20532;-70
2022/03/12 10:26:29;;;;;;;6.65;1.00;;;9.90;77.30;;;;;;4917549;29;20104;-70
2022/03/12 10:28:57;;;;;;;5.65;0.98;;;9.90;76.80;;;;;;4919643;29;20048;-71
2022/03/12 10:31:24;;;;;;;6.68;1.33;;;10.20;77.20;;;;;;4916294;29;20047;-70
2022/03/12 10:34:01;;;;;;;4.82;0.70;;;10.40;75.80;;;;;;4917800;29;20044;-70
2022/03/12 10:36:39;;;;;;;3.33;0.70;;;10.50;75.30;;;;;;4928349;29;20051;-70
2022/03/12 10:39:07;;;;;;;3.20;0.82;;;10.50;74.80;;;;;;4920815;29;20052;-71
2022/03/12 10:41:36;;;;;;;4.15;0.75;;;10.50;74.10;;;;;;4913834;29;20047;-70
2022/03/12 10:44:05;;;;;;;5.30;0.90;;;10.50;74.40;;;;;;4932576;29;20043;-70
2022/03/12 10:46:35;;;;;;;5.43;0.80;;;10.60;73.90;;;;;;4914868;29;20047;-71
2022/03/12 10:49:03;;;;;;;5.97;1.00;;;10.70;73.90;;;;;;4932783;29;20048;-70
2022/03/12 10:51:35;;;;;;;3.88;0.90;;;10.80;73.60;;;;;;4927699;29;20048;-71
2022/03/12 10:54:09;;;;;;;3.40;1.20;;;10.80;72.50;;;;;;4930346;29;20060;-70
2022/03/12 10:56:38;;;;;;;7.18;1.05;;;10.90;72.30;;;;;;4932091;29;20047;-70
2022/03/12 10:59:14;;;;;;;4.90;0.90;;;10.90;72.50;;;;;;4927762;29;20059;-71
2022/03/12 11:01:47;;;;;;;4.50;1.33;;;10.70;72.50;;;;;;4911871;29;20060;-71
2022/03/12 11:04:30;;;;;;;7.63;1.20;;;10.60;72.50;;;;;;4914184;29;20056;-72
2022/03/12 11:06:59;;;;;;;3.88;1.13;;;10.50;72.80;;;;;;4930807;29;20492;-71
2022/03/12 11:09:39;;;;;;;3.88;1.10;;;10.30;72.70;;;;;;4910908;29;20574;-73
2022/03/12 11:12:37;;;;;;;7.80;1.20;;;10.20;72.90;;;;;;4930975;29;20036;-72
2022/03/12 11:15:15;;;;;;;4.43;1.10;;;10.10;73.20;;;;;;4927653;29;20048;-72
2022/03/12 11:17:48;;;;;;;5.40;1.00;;;10.20;73.70;;;;;;4930030;29;20055;-72
2022/03/12 11:20:23;;;;;;;3.38;0.73;;;10.30;74.00;;;;;;4916017;29;20043;-72
2022/03/12 11:23:26;;;;;;;5.53;0.70;;;10.30;74.00;;;;;;4915477;29;20048;-73
2022/03/12 11:26:05;;;;;;;3.47;0.75;;;10.40;72.70;;;;;;4930062;29;20051;-72
2022/03/12 11:28:37;;;;;;;5.85;0.82;;;10.30;73.00;;;;;;4915081;29;20055;-72
2022/03/12 11:31:07;;;;;;;4.22;1.02;;;10.20;72.90;;;;;;4910590;29;20398;-72
2022/03/12 11:33:35;;;;;;;3.30;0.60;;;10.00;72.60;;;;;;4917085;29;20047;-72
2022/03/12 11:36:09;;;;;;;4.95;0.75;;;10.00;72.80;;;;;;4939305;29;20115;-72
2022/03/12 11:38:38;;;;;;;4.28;0.70;;;9.90;71.60;;;;;;4929023;29;20063;-72
2022/03/12 11:41:09;;;;;;;1.38;0.50;;;9.90;71.10;;;;;;4932027;29;20048;-72
2022/03/12 11:43:42;;;;;;;2.20;0.50;;;9.90;71.40;;;;;;4897012;29;20048;-72
2022/03/12 11:46:12;;;;;;;2.80;0.90;;;10.10;71.00;;;;;;4926080;29;20051;-71
2022/03/12 11:48:41;;;;;;;3.05;0.60;;;10.50;71.20;;;;;;4918422;29;20048;-71
2022/03/12 11:51:25;;;;;;;3.83;0.98;;;11.00;68.90;;;;;;4925824;29;20040;-72
2022/03/12 11:53:55;;;;;;;1.73;0.40;;;11.40;65.60;;;;;;4916199;29;20059;-71
2022/03/12 11:56:25;;;;;;;3.92;0.60;;;11.60;65.80;;;;;;4925417;29;20048;-72
2022/03/12 11:58:53;;;;;;;2.65;0.68;;;11.70;64.40;;;;;;4909285;29;20051;-72
2022/03/12 12:01:22;;;;;;;3.70;0.50;;;11.80;65.10;;;;;;4915092;29;20055;-72
2022/03/12 12:03:53;;;;;;;4.90;1.02;;;11.90;64.50;;;;;;4942737;29;20051;-72
2022/03/12 12:06:21;;;;;;;4.70;0.95;;;12.00;63.70;;;;;;4915837;29;20052;-71
2022/03/12 12:08:48;;;;;;;4.47;0.77;;;12.20;63.70;;;;;;4910844;29;20418;-71
2022/03/12 12:11:17;;;;;;;2.47;0.68;;;12.40;63.60;;;;;;4913508;29;20063;-71
2022/03/12 12:13:44;;;;;;;4.75;0.93;;;12.80;62.80;;;;;;4925048;29;20375;-71
2022/03/12 12:16:15;;;;;;;6.18;1.08;;;13.20;61.60;;;;;;4931333;29;20040;-72
2022/03/12 12:18:45;;;;;;;3.83;0.82;;;13.30;59.70;;;;;;4933053;29;20036;-72
2022/03/12 12:21:17;;;;;;;2.20;0.60;;;13.20;59.70;;;;;;4926157;29;20051;-72
2022/03/12 12:23:47;;;;;;;4.10;0.52;;;13.10;58.10;;;;;;4909322;29;20055;-72
2022/03/12 12:26:14;;;;;;;5.35;1.02;;;12.80;58.60;;;;;;4927931;29;20044;-72
2022/03/12 12:29:00;;;;;;;2.38;0.50;;;12.60;59.60;;;;;;4927711;29;20659;-73
2022/03/12 12:31:28;;;;;;;6.93;0.82;;;12.90;58.90;;;;;;4927874;29;20058;-71
2022/03/12 12:34:00;;;;;;;4.43;0.77;;;12.80;59.30;;;;;;4894558;29;20398;-72
2022/03/12 12:36:28;;;;;;;4.28;0.80;;;12.80;59.60;;;;;;4895506;29;20509;-72
2022/03/12 12:39:10;;;;;;;4.07;0.68;;;12.80;58.90;;;;;;4925700;29;20107;-72
2022/03/12 12:42:01;;;;;;;6.82;0.63;;;12.70;59.10;;;;;;4926407;29;20437;-71
2022/03/12 12:44:39;;;;;;;2.08;0.68;;;13.20;59.60;;;;;;4924686;29;20060;-72
2022/03/12 12:47:18;;;;;;;4.97;0.70;;;14.10;54.00;;;;;;4916497;29;20051;-72
2022/03/12 12:49:57;;;;;;;4.70;0.80;;;14.30;53.90;;;;;;4915686;29;20054;-72
2022/03/12 12:52:30;;;;;;;5.47;0.85;;;14.60;53.10;;;;;;4913843;29;20057;-73
2022/03/12 12:55:00;;;;;;;7.22;1.02;;;14.90;50.70;;;;;;4913942;29;20055;-71
2022/03/12 12:57:47;;;;;;;3.38;0.90;;;14.80;51.50;;;;;;4928745;29;20051;-71
2022/03/12 13:00:21;;;;;;;6.30;0.98;;;14.60;51.80;;;;;;4928297;29;20518;-71
2022/03/12 13:02:50;;;;;;;4.90;0.75;;;14.50;53.20;;;;;;4926210;29;20039;-71
2022/03/12 13:05:19;;;;;;;4.50;0.93;;;14.80;54.00;;;;;;4927082;29;20051;-71
2022/03/12 13:08:00;;;;;;;3.35;0.98;;;15.30;52.10;;;;;;4925629;29;20409;-71
2022/03/12 13:10:29;;;;;;;4.95;0.77;;;15.60;51.90;;;;;;4929146;29;20402;-71
2022/03/12 13:13:33;;;;;;;2.90;0.60;;;16.00;50.30;;;;;;4925755;29;20048;-71
2022/03/12 13:16:16;;;;;;;3.67;0.70;;;16.60;47.90;;;;;;4831500;29;20581;-71
2022/03/12 13:18:45;;;;;;;4.95;0.68;;;16.90;45.50;;;;;;4833274;29;20561;-71